sensor_id;sensor_type;location;lat;lon;timestamp;P1;durP1;ratioP1;P2;durP2;ratioP2
5279;SDS011;2663;53.588;10.010;2022-08-21T00:00:23;24.83;;;13.60;;
5279;SDS011;2663;53.588;10.010;2022-08-21T00:02:56;24.30;;;14.83;;
5279;SDS011;2663;53.588;10.010;2022-08-21T00:05:25;34.43;;;15.53;;
5279;SDS011;2663;53.588;10.010;2022-08-21T00:07:53;26.03;;;14.60;;
5279;SDS011;2663;53.588;10.010;2022-08-21T00:10:20;31.53;;;15.13;;
5279;SDS011;2663;53.588;10.010;2022-08-21T00:12:47;32.30;;;14.30;;
5279;SDS011;2663;53.588;10.010;2022-08-21T00:15:16;25.50;;;14.50;;
5279;SDS011;2663;53.588;10.010;2022-08-21T00:17:46;34.67;;;16.00;;
5279;SDS011;2663;53.588;10.010;2022-08-21T00:20:13;28.90;;;14.37;;
5279;SDS011;2663;53.588;10.010;2022-08-21T00:22:42;24.33;;;12.93;;
5279;SDS011;2663;53.588;10.010;2022-08-21T00:25:09;31.30;;;14.17;;
5279;SDS011;2663;53.588;10.010;2022-08-21T00:27:36;24.63;;;12.20;;
5279;SDS011;2663;53.588;10.010;2022-08-21T00:30:04;25.37;;;13.33;;
5279;SDS011;2663;53.588;10.010;2022-08-21T00:32:32;22.63;;;12.20;;
5279;SDS011;2663;53.588;10.010;2022-08-21T00:34:59;26.70;;;11.30;;
5279;SDS011;2663;53.588;10.010;2022-08-21T00:37:26;22.07;;;10.63;;
5279;SDS011;2663;53.588;10.010;2022-08-21T00:39:55;15.03;;;8.73;;
5279;SDS011;2663;53.588;10.010;2022-08-21T00:42:22;18.03;;;8.40;;
5279;SDS011;2663;53.588;10.010;2022-08-21T00:44:49;16.53;;;7.83;;
5279;SDS011;2663;53.588;10.010;2022-08-21T00:47:17;14.10;;;7.83;;
5279;SDS011;2663;53.588;10.010;2022-08-21T00:49:44;12.60;;;7.23;;
5279;SDS011;2663;53.588;10.010;2022-08-21T00:52:19;13.27;;;6.60;;
5279;SDS011;2663;53.588;10.010;2022-08-21T00:54:50;15.87;;;6.47;;
5279;SDS011;2663;53.588;10.010;2022-08-21T00:57:26;11.87;;;6.13;;
5279;SDS011;2663;53.588;10.010;2022-08-21T00:59:57;10.83;;;5.87;;
5279;SDS011;2663;53.588;10.010;2022-08-21T01:02:26;8.03;;;5.73;;
5279;SDS011;2663;53.588;10.010;2022-08-21T01:04:53;16.53;;;6.37;;
5279;SDS011;2663;53.588;10.010;2022-08-21T01:07:20;10.60;;;5.90;;
5279;SDS011;2663;53.588;10.010;2022-08-21T01:09:49;14.00;;;5.33;;
5279;SDS011;2663;53.588;10.010;2022-08-21T01:12:16;13.90;;;5.40;;
5279;SDS011;2663;53.588;10.010;2022-08-21T01:14:43;12.13;;;4.77;;
5279;SDS011;2663;53.588;10.010;2022-08-21T01:17:11;16.70;;;5.50;;
5279;SDS011;2663;53.588;10.010;2022-08-21T01:19:39;11.30;;;5.57;;
5279;SDS011;2663;53.588;10.010;2022-08-21T01:22:06;10.87;;;5.60;;
5279;SDS011;2663;53.588;10.010;2022-08-21T01:24:33;11.30;;;5.23;;
5279;SDS011;2663;53.588;10.010;2022-08-21T01:27:00;14.47;;;6.07;;
5279;SDS011;2663;53.588;10.010;2022-08-21T01:29:29;7.70;;;5.00;;
5279;SDS011;2663;53.588;10.010;2022-08-21T01:32:15;10.90;;;4.70;;
5279;SDS011;2663;53.588;10.010;2022-08-21T01:34:45;21.10;;;4.90;;
5279;SDS011;2663;53.588;10.010;2022-08-21T01:37:14;13.73;;;4.40;;
5279;SDS011;2663;53.588;10.010;2022-08-21T01:39:43;9.63;;;4.67;;
5279;SDS011;2663;53.588;10.010;2022-08-21T01:42:10;8.00;;;4.40;;
5279;SDS011;2663;53.588;10.010;2022-08-21T01:44:37;13.37;;;4.80;;
5279;SDS011;2663;53.588;10.010;2022-08-21T01:47:05;15.03;;;4.90;;
5279;SDS011;2663;53.588;10.010;2022-08-21T01:49:35;10.03;;;4.80;;
5279;SDS011;2663;53.588;10.010;2022-08-21T01:52:03;10.53;;;5.23;;
5279;SDS011;2663;53.588;10.010;2022-08-21T01:54:34;12.20;;;5.13;;
5279;SDS011;2663;53.588;10.010;2022-08-21T01:57:02;13.87;;;4.20;;
5279;SDS011;2663;53.588;10.010;2022-08-21T01:59:31;11.83;;;5.47;;
5279;SDS011;2663;53.588;10.010;2022-08-21T02:01:58;10.10;;;5.00;;
5279;SDS011;2663;53.588;10.010;2022-08-21T02:04:25;15.33;;;5.17;;
5279;SDS011;2663;53.588;10.010;2022-08-21T02:06:52;8.20;;;4.50;;
5279;SDS011;2663;53.588;10.010;2022-08-21T02:09:18;8.67;;;4.77;;
5279;SDS011;2663;53.588;10.010;2022-08-21T02:11:45;7.77;;;4.70;;
5279;SDS011;2663;53.588;10.010;2022-08-21T02:14:13;9.30;;;4.97;;
5279;SDS011;2663;53.588;10.010;2022-08-21T02:16:57;13.57;;;6.33;;
5279;SDS011;2663;53.588;10.010;2022-08-21T02:19:34;8.03;;;4.57;;
5279;SDS011;2663;53.588;10.010;2022-08-21T02:22:05;9.80;;;4.60;;
5279;SDS011;2663;53.588;10.010;2022-08-21T02:24:36;14.00;;;5.10;;
5279;SDS011;2663;53.588;10.010;2022-08-21T02:27:19;10.90;;;4.87;;
5279;SDS011;2663;53.588;10.010;2022-08-21T02:29:52;12.60;;;4.97;;
5279;SDS011;2663;53.588;10.010;2022-08-21T02:32:19;11.93;;;5.40;;
5279;SDS011;2663;53.588;10.010;2022-08-21T02:34:47;11.53;;;4.97;;
5279;SDS011;2663;53.588;10.010;2022-08-21T02:37:14;8.70;;;3.90;;
5279;SDS011;2663;53.588;10.010;2022-08-21T02:39:41;14.77;;;4.60;;
5279;SDS011;2663;53.588;10.010;2022-08-21T02:42:08;9.40;;;4.40;;
5279;SDS011;2663;53.588;10.010;2022-08-21T02:44:35;9.13;;;4.87;;
5279;SDS011;2663;53.588;10.010;2022-08-21T02:47:01;7.63;;;4.53;;
5279;SDS011;2663;53.588;10.010;2022-08-21T02:49:28;7.57;;;4.73;;
5279;SDS011;2663;53.588;10.010;2022-08-21T02:51:55;10.40;;;4.60;;
5279;SDS011;2663;53.588;10.010;2022-08-21T02:54:21;7.50;;;4.40;;
5279;SDS011;2663;53.588;10.010;2022-08-21T02:56:48;10.20;;;6.30;;
5279;SDS011;2663;53.588;10.010;2022-08-21T02:59:15;8.17;;;4.97;;
5279;SDS011;2663;53.588;10.010;2022-08-21T03:01:42;10.03;;;4.77;;
5279;SDS011;2663;53.588;10.010;2022-08-21T03:04:09;16.83;;;5.53;;
5279;SDS011;2663;53.588;10.010;2022-08-21T03:06:35;10.83;;;4.83;;
5279;SDS011;2663;53.588;10.010;2022-08-21T03:09:02;9.30;;;4.70;;
5279;SDS011;2663;53.588;10.010;2022-08-21T03:11:29;8.97;;;5.07;;
5279;SDS011;2663;53.588;10.010;2022-08-21T03:13:56;9.00;;;4.93;;
5279;SDS011;2663;53.588;10.010;2022-08-21T03:16:22;9.90;;;5.03;;
5279;SDS011;2663;53.588;10.010;2022-08-21T03:18:49;10.37;;;4.87;;
5279;SDS011;2663;53.588;10.010;2022-08-21T03:21:16;8.90;;;4.47;;
5279;SDS011;2663;53.588;10.010;2022-08-21T03:23:44;9.03;;;4.40;;
5279;SDS011;2663;53.588;10.010;2022-08-21T03:26:13;10.07;;;4.73;;
5279;SDS011;2663;53.588;10.010;2022-08-21T03:28:41;9.60;;;5.20;;
5279;SDS011;2663;53.588;10.010;2022-08-21T03:31:07;11.23;;;4.30;;
5279;SDS011;2663;53.588;10.010;2022-08-21T03:33:34;13.97;;;5.53;;
5279;SDS011;2663;53.588;10.010;2022-08-21T03:36:03;11.23;;;5.27;;
5279;SDS011;2663;53.588;10.010;2022-08-21T03:38:32;11.23;;;4.50;;
5279;SDS011;2663;53.588;10.010;2022-08-21T03:41:01;9.07;;;4.00;;
5279;SDS011;2663;53.588;10.010;2022-08-21T03:43:28;6.10;;;4.00;;
5279;SDS011;2663;53.588;10.010;2022-08-21T03:45:58;7.63;;;4.60;;
5279;SDS011;2663;53.588;10.010;2022-08-21T03:48:26;6.80;;;4.17;;
5279;SDS011;2663;53.588;10.010;2022-08-21T03:50:53;7.37;;;4.43;;
5279;SDS011;2663;53.588;10.010;2022-08-21T03:53:20;8.03;;;4.77;;
5279;SDS011;2663;53.588;10.010;2022-08-21T03:55:48;13.90;;;4.53;;
5279;SDS011;2663;53.588;10.010;2022-08-21T03:58:17;10.47;;;4.37;;
5279;SDS011;2663;53.588;10.010;2022-08-21T04:00:48;11.00;;;4.80;;
5279;SDS011;2663;53.588;10.010;2022-08-21T04:03:17;6.93;;;4.47;;
5279;SDS011;2663;53.588;10.010;2022-08-21T04:05:44;8.67;;;4.30;;
5279;SDS011;2663;53.588;10.010;2022-08-21T04:08:12;10.40;;;5.13;;
5279;SDS011;2663;53.588;10.010;2022-08-21T04:10:40;12.40;;;4.77;;
5279;SDS011;2663;53.588;10.010;2022-08-21T04:13:09;5.30;;;3.80;;
5279;SDS011;2663;53.588;10.010;2022-08-21T04:15:35;9.63;;;4.63;;
5279;SDS011;2663;53.588;10.010;2022-08-21T04:18:03;5.47;;;3.70;;
5279;SDS011;2663;53.588;10.010;2022-08-21T04:20:31;6.13;;;4.10;;
5279;SDS011;2663;53.588;10.010;2022-08-21T04:22:59;10.30;;;4.70;;
5279;SDS011;2663;53.588;10.010;2022-08-21T04:25:25;9.10;;;4.60;;
5279;SDS011;2663;53.588;10.010;2022-08-21T04:27:53;14.70;;;6.33;;
5279;SDS011;2663;53.588;10.010;2022-08-21T04:30:20;15.60;;;4.73;;
5279;SDS011;2663;53.588;10.010;2022-08-21T04:32:54;13.37;;;5.17;;
5279;SDS011;2663;53.588;10.010;2022-08-21T04:35:22;13.40;;;4.17;;
5279;SDS011;2663;53.588;10.010;2022-08-21T04:37:50;8.43;;;4.57;;
5279;SDS011;2663;53.588;10.010;2022-08-21T04:40:18;11.70;;;4.80;;
5279;SDS011;2663;53.588;10.010;2022-08-21T04:42:50;9.23;;;4.37;;
5279;SDS011;2663;53.588;10.010;2022-08-21T04:45:24;13.70;;;4.50;;
5279;SDS011;2663;53.588;10.010;2022-08-21T04:47:57;7.37;;;4.57;;
5279;SDS011;2663;53.588;10.010;2022-08-21T04:50:35;9.93;;;4.10;;
5279;SDS011;2663;53.588;10.010;2022-08-21T04:53:18;9.00;;;4.30;;
5279;SDS011;2663;53.588;10.010;2022-08-21T04:55:48;11.17;;;3.93;;
5279;SDS011;2663;53.588;10.010;2022-08-21T04:58:17;11.80;;;4.30;;
5279;SDS011;2663;53.588;10.010;2022-08-21T05:00:46;9.60;;;4.50;;
5279;SDS011;2663;53.588;10.010;2022-08-21T05:03:13;10.23;;;4.07;;
5279;SDS011;2663;53.588;10.010;2022-08-21T05:05:42;6.57;;;3.97;;
5279;SDS011;2663;53.588;10.010;2022-08-21T05:08:09;12.70;;;4.57;;
5279;SDS011;2663;53.588;10.010;2022-08-21T05:10:40;6.83;;;4.03;;
5279;SDS011;2663;53.588;10.010;2022-08-21T05:13:08;9.53;;;4.10;;
5279;SDS011;2663;53.588;10.010;2022-08-21T05:15:35;8.20;;;4.90;;
5279;SDS011;2663;53.588;10.010;2022-08-21T05:18:03;8.27;;;4.43;;
5279;SDS011;2663;53.588;10.010;2022-08-21T05:20:30;16.67;;;4.37;;
5279;SDS011;2663;53.588;10.010;2022-08-21T05:22:57;6.57;;;4.40;;
5279;SDS011;2663;53.588;10.010;2022-08-21T05:25:24;10.10;;;4.37;;
5279;SDS011;2663;53.588;10.010;2022-08-21T05:27:53;13.63;;;4.07;;
5279;SDS011;2663;53.588;10.010;2022-08-21T05:30:20;6.63;;;4.03;;
5279;SDS011;2663;53.588;10.010;2022-08-21T05:32:46;7.13;;;3.73;;
5279;SDS011;2663;53.588;10.010;2022-08-21T05:35:13;5.73;;;3.93;;
5279;SDS011;2663;53.588;10.010;2022-08-21T05:37:40;14.70;;;4.90;;
5279;SDS011;2663;53.588;10.010;2022-08-21T05:40:07;6.30;;;3.60;;
5279;SDS011;2663;53.588;10.010;2022-08-21T05:42:49;8.67;;;4.80;;
5279;SDS011;2663;53.588;10.010;2022-08-21T05:45:20;6.03;;;4.23;;
5279;SDS011;2663;53.588;10.010;2022-08-21T05:48:19;12.83;;;3.93;;
5279;SDS011;2663;53.588;10.010;2022-08-21T05:50:47;11.90;;;4.97;;
5279;SDS011;2663;53.588;10.010;2022-08-21T05:53:16;15.10;;;7.80;;
5279;SDS011;2663;53.588;10.010;2022-08-21T05:55:44;14.07;;;7.07;;
5279;SDS011;2663;53.588;10.010;2022-08-21T05:58:13;13.03;;;6.20;;
5279;SDS011;2663;53.588;10.010;2022-08-21T06:00:41;12.10;;;5.57;;
5279;SDS011;2663;53.588;10.010;2022-08-21T06:03:16;5.93;;;2.93;;
5279;SDS011;2663;53.588;10.010;2022-08-21T06:05:47;8.97;;;4.50;;
5279;SDS011;2663;53.588;10.010;2022-08-21T06:08:15;14.23;;;3.90;;
5279;SDS011;2663;53.588;10.010;2022-08-21T06:10:43;5.23;;;3.13;;
5279;SDS011;2663;53.588;10.010;2022-08-21T06:13:13;9.20;;;3.73;;
5279;SDS011;2663;53.588;10.010;2022-08-21T06:15:41;13.40;;;3.70;;
5279;SDS011;2663;53.588;10.010;2022-08-21T06:18:08;6.83;;;2.87;;
5279;SDS011;2663;53.588;10.010;2022-08-21T06:20:35;10.10;;;3.67;;
5279;SDS011;2663;53.588;10.010;2022-08-21T06:23:01;18.60;;;2.90;;
5279;SDS011;2663;53.588;10.010;2022-08-21T06:25:28;7.03;;;4.00;;
5279;SDS011;2663;53.588;10.010;2022-08-21T06:28:00;8.57;;;4.50;;
5279;SDS011;2663;53.588;10.010;2022-08-21T06:30:37;5.07;;;3.13;;
5279;SDS011;2663;53.588;10.010;2022-08-21T06:33:05;7.17;;;4.30;;
5279;SDS011;2663;53.588;10.010;2022-08-21T06:35:33;8.20;;;2.77;;
5279;SDS011;2663;53.588;10.010;2022-08-21T06:38:00;15.37;;;8.40;;
5279;SDS011;2663;53.588;10.010;2022-08-21T06:40:27;13.43;;;3.50;;
5279;SDS011;2663;53.588;10.010;2022-08-21T06:42:56;13.77;;;5.97;;
5279;SDS011;2663;53.588;10.010;2022-08-21T06:45:24;11.20;;;3.27;;
5279;SDS011;2663;53.588;10.010;2022-08-21T06:47:55;9.43;;;2.57;;
5279;SDS011;2663;53.588;10.010;2022-08-21T06:50:21;9.90;;;2.97;;
5279;SDS011;2663;53.588;10.010;2022-08-21T06:52:48;12.30;;;3.80;;
5279;SDS011;2663;53.588;10.010;2022-08-21T06:55:15;23.43;;;7.77;;
5279;SDS011;2663;53.588;10.010;2022-08-21T06:57:48;13.83;;;4.47;;
5279;SDS011;2663;53.588;10.010;2022-08-21T07:00:18;2.30;;;1.90;;
5279;SDS011;2663;53.588;10.010;2022-08-21T07:02:45;8.70;;;4.10;;
5279;SDS011;2663;53.588;10.010;2022-08-21T07:05:11;3.30;;;2.20;;
5279;SDS011;2663;53.588;10.010;2022-08-21T07:07:43;7.23;;;2.90;;
5279;SDS011;2663;53.588;10.010;2022-08-21T07:10:11;5.90;;;2.37;;
5279;SDS011;2663;53.588;10.010;2022-08-21T07:12:47;14.27;;;1.90;;
5279;SDS011;2663;53.588;10.010;2022-08-21T07:15:16;9.07;;;2.40;;
5279;SDS011;2663;53.588;10.010;2022-08-21T07:17:43;8.73;;;2.70;;
5279;SDS011;2663;53.588;10.010;2022-08-21T07:20:09;9.73;;;3.90;;
5279;SDS011;2663;53.588;10.010;2022-08-21T07:22:38;4.37;;;2.20;;
5279;SDS011;2663;53.588;10.010;2022-08-21T07:25:07;15.93;;;3.20;;
5279;SDS011;2663;53.588;10.010;2022-08-21T07:27:34;13.57;;;4.53;;
5279;SDS011;2663;53.588;10.010;2022-08-21T07:30:01;6.23;;;2.37;;
5279;SDS011;2663;53.588;10.010;2022-08-21T07:32:28;5.00;;;2.70;;
5279;SDS011;2663;53.588;10.010;2022-08-21T07:34:55;7.20;;;3.33;;
5279;SDS011;2663;53.588;10.010;2022-08-21T07:37:22;5.03;;;1.63;;
5279;SDS011;2663;53.588;10.010;2022-08-21T07:39:49;18.30;;;2.70;;
5279;SDS011;2663;53.588;10.010;2022-08-21T07:42:17;3.60;;;2.33;;
5279;SDS011;2663;53.588;10.010;2022-08-21T07:44:43;5.30;;;1.70;;
5279;SDS011;2663;53.588;10.010;2022-08-21T07:47:10;13.47;;;2.60;;
5279;SDS011;2663;53.588;10.010;2022-08-21T07:49:37;5.60;;;2.10;;
5279;SDS011;2663;53.588;10.010;2022-08-21T07:52:04;12.33;;;3.87;;
5279;SDS011;2663;53.588;10.010;2022-08-21T07:54:31;7.23;;;2.57;;
5279;SDS011;2663;53.588;10.010;2022-08-21T07:56:59;11.33;;;2.17;;
5279;SDS011;2663;53.588;10.010;2022-08-21T07:59:25;5.83;;;2.20;;
5279;SDS011;2663;53.588;10.010;2022-08-21T08:01:52;8.80;;;2.10;;
5279;SDS011;2663;53.588;10.010;2022-08-21T08:04:19;7.30;;;2.00;;
5279;SDS011;2663;53.588;10.010;2022-08-21T08:06:51;5.90;;;2.03;;
5279;SDS011;2663;53.588;10.010;2022-08-21T08:09:18;13.67;;;2.97;;
5279;SDS011;2663;53.588;10.010;2022-08-21T08:11:45;3.60;;;2.37;;
5279;SDS011;2663;53.588;10.010;2022-08-21T08:14:12;13.27;;;2.63;;
5279;SDS011;2663;53.588;10.010;2022-08-21T08:16:39;5.10;;;2.70;;
5279;SDS011;2663;53.588;10.010;2022-08-21T08:19:06;8.23;;;2.73;;
5279;SDS011;2663;53.588;10.010;2022-08-21T08:21:32;4.63;;;1.90;;
5279;SDS011;2663;53.588;10.010;2022-08-21T08:24:00;4.57;;;2.03;;
5279;SDS011;2663;53.588;10.010;2022-08-21T08:26:44;5.10;;;2.57;;
5279;SDS011;2663;53.588;10.010;2022-08-21T08:29:18;10.67;;;3.30;;
5279;SDS011;2663;53.588;10.010;2022-08-21T08:31:46;4.43;;;2.70;;
5279;SDS011;2663;53.588;10.010;2022-08-21T08:34:12;5.20;;;2.40;;
5279;SDS011;2663;53.588;10.010;2022-08-21T08:36:51;9.23;;;2.40;;
5279;SDS011;2663;53.588;10.010;2022-08-21T08:39:17;6.97;;;1.80;;
5279;SDS011;2663;53.588;10.010;2022-08-21T08:41:59;3.53;;;2.17;;
5279;SDS011;2663;53.588;10.010;2022-08-21T08:44:57;9.60;;;2.10;;
5279;SDS011;2663;53.588;10.010;2022-08-21T08:47:39;7.27;;;2.20;;
5279;SDS011;2663;53.588;10.010;2022-08-21T08:52:48;8.20;;;2.20;;
5279;SDS011;2663;53.588;10.010;2022-08-21T08:55:37;10.33;;;2.27;;
5279;SDS011;2663;53.588;10.010;2022-08-21T08:58:09;9.70;;;1.90;;
5279;SDS011;2663;53.588;10.010;2022-08-21T09:00:43;9.20;;;2.20;;
5279;SDS011;2663;53.588;10.010;2022-08-21T09:03:15;6.57;;;1.97;;
5279;SDS011;2663;53.588;10.010;2022-08-21T09:05:45;18.13;;;2.57;;
5279;SDS011;2663;53.588;10.010;2022-08-21T09:11:00;8.60;;;2.23;;
5279;SDS011;2663;53.588;10.010;2022-08-21T09:16:12;10.33;;;2.30;;
5279;SDS011;2663;53.588;10.010;2022-08-21T09:19:04;4.17;;;1.73;;
5279;SDS011;2663;53.588;10.010;2022-08-21T09:21:53;15.13;;;2.10;;
5279;SDS011;2663;53.588;10.010;2022-08-21T09:27:17;18.33;;;3.53;;
5279;SDS011;2663;53.588;10.010;2022-08-21T09:29:45;7.60;;;2.30;;
5279;SDS011;2663;53.588;10.010;2022-08-21T09:32:15;7.77;;;2.20;;
5279;SDS011;2663;53.588;10.010;2022-08-21T09:34:58;7.63;;;2.20;;
5279;SDS011;2663;53.588;10.010;2022-08-21T09:37:45;9.67;;;2.57;;
5279;SDS011;2663;53.588;10.010;2022-08-21T09:40:43;4.83;;;2.33;;
5279;SDS011;2663;53.588;10.010;2022-08-21T09:43:19;12.30;;;2.80;;
5279;SDS011;2663;53.588;10.010;2022-08-21T09:45:48;13.93;;;2.00;;
5279;SDS011;2663;53.588;10.010;2022-08-21T09:48:26;12.50;;;2.40;;
5279;SDS011;2663;53.588;10.010;2022-08-21T09:51:09;18.70;;;2.50;;
5279;SDS011;2663;53.588;10.010;2022-08-21T09:53:42;12.13;;;2.30;;
5279;SDS011;2663;53.588;10.010;2022-08-21T09:56:25;6.70;;;3.03;;
5279;SDS011;2663;53.588;10.010;2022-08-21T09:59:18;3.70;;;2.70;;
5279;SDS011;2663;53.588;10.010;2022-08-21T10:01:48;11.97;;;2.80;;
5279;SDS011;2663;53.588;10.010;2022-08-21T10:04:19;8.73;;;2.70;;
5279;SDS011;2663;53.588;10.010;2022-08-21T10:06:49;6.00;;;2.03;;
5279;SDS011;2663;53.588;10.010;2022-08-21T10:09:18;9.60;;;2.10;;
5279;SDS011;2663;53.588;10.010;2022-08-21T10:11:49;7.07;;;1.87;;
5279;SDS011;2663;53.588;10.010;2022-08-21T10:14:43;6.40;;;2.17;;
5279;SDS011;2663;53.588;10.010;2022-08-21T10:17:38;9.70;;;3.00;;
5279;SDS011;2663;53.588;10.010;2022-08-21T10:20:11;7.83;;;2.60;;
5279;SDS011;2663;53.588;10.010;2022-08-21T10:22:49;9.20;;;2.27;;
5279;SDS011;2663;53.588;10.010;2022-08-21T10:25:33;8.10;;;2.63;;
5279;SDS011;2663;53.588;10.010;2022-08-21T10:28:14;13.50;;;2.90;;
5279;SDS011;2663;53.588;10.010;2022-08-21T10:30:50;6.50;;;2.30;;
5279;SDS011;2663;53.588;10.010;2022-08-21T10:33:27;5.53;;;2.33;;
5279;SDS011;2663;53.588;10.010;2022-08-21T10:36:13;4.90;;;2.50;;
5279;SDS011;2663;53.588;10.010;2022-08-21T10:42:15;2.73;;;1.60;;
5279;SDS011;2663;53.588;10.010;2022-08-21T10:48:01;5.10;;;1.70;;
5279;SDS011;2663;53.588;10.010;2022-08-21T10:53:49;6.37;;;1.90;;
5279;SDS011;2663;53.588;10.010;2022-08-21T10:56:23;4.40;;;2.00;;
5279;SDS011;2663;53.588;10.010;2022-08-21T10:59:02;7.23;;;1.67;;
5279;SDS011;2663;53.588;10.010;2022-08-21T11:01:53;7.43;;;2.10;;
5279;SDS011;2663;53.588;10.010;2022-08-21T11:04:55;6.90;;;1.97;;
5279;SDS011;2663;53.588;10.010;2022-08-21T11:07:30;8.83;;;2.30;;
5279;SDS011;2663;53.588;10.010;2022-08-21T11:10:44;6.13;;;2.40;;
5279;SDS011;2663;53.588;10.010;2022-08-21T11:12:53;8.20;;;2.00;;
5279;SDS011;2663;53.588;10.010;2022-08-21T11:15:48;4.90;;;2.40;;
5279;SDS011;2663;53.588;10.010;2022-08-21T11:18:43;4.90;;;1.93;;
5279;SDS011;2663;53.588;10.010;2022-08-21T11:21:27;3.17;;;1.67;;
5279;SDS011;2663;53.588;10.010;2022-08-21T11:26:45;7.03;;;1.90;;
5279;SDS011;2663;53.588;10.010;2022-08-21T11:29:21;5.43;;;2.20;;
5279;SDS011;2663;53.588;10.010;2022-08-21T11:34:37;4.17;;;1.20;;
5279;SDS011;2663;53.588;10.010;2022-08-21T11:37:20;4.77;;;3.37;;
5279;SDS011;2663;53.588;10.010;2022-08-21T11:40:24;5.47;;;1.70;;
5279;SDS011;2663;53.588;10.010;2022-08-21T11:43:19;3.87;;;1.90;;
5279;SDS011;2663;53.588;10.010;2022-08-21T11:48:57;6.93;;;2.17;;
5279;SDS011;2663;53.588;10.010;2022-08-21T11:51:32;8.90;;;1.67;;
5279;SDS011;2663;53.588;10.010;2022-08-21T11:57:20;6.53;;;4.33;;
5279;SDS011;2663;53.588;10.010;2022-08-21T11:59:59;11.43;;;2.10;;
5279;SDS011;2663;53.588;10.010;2022-08-21T12:02:36;8.13;;;1.70;;
5279;SDS011;2663;53.588;10.010;2022-08-21T12:05:09;2.60;;;1.33;;
5279;SDS011;2663;53.588;10.010;2022-08-21T12:07:48;2.20;;;1.67;;
5279;SDS011;2663;53.588;10.010;2022-08-21T12:10:59;3.33;;;1.53;;
5279;SDS011;2663;53.588;10.010;2022-08-21T12:13:37;8.40;;;1.60;;
5279;SDS011;2663;53.588;10.010;2022-08-21T12:16:35;4.07;;;1.60;;
5279;SDS011;2663;53.588;10.010;2022-08-21T12:19:07;4.27;;;1.80;;
5279;SDS011;2663;53.588;10.010;2022-08-21T12:21:47;6.37;;;2.20;;
5279;SDS011;2663;53.588;10.010;2022-08-21T12:27:22;3.07;;;1.90;;
5279;SDS011;2663;53.588;10.010;2022-08-21T12:30:02;1.87;;;1.57;;
5279;SDS011;2663;53.588;10.010;2022-08-21T12:33:18;6.23;;;1.50;;
5279;SDS011;2663;53.588;10.010;2022-08-21T12:35:32;6.17;;;1.90;;
5279;SDS011;2663;53.588;10.010;2022-08-21T12:38:14;2.77;;;1.80;;
5279;SDS011;2663;53.588;10.010;2022-08-21T12:40:55;6.47;;;1.70;;
5279;SDS011;2663;53.588;10.010;2022-08-21T12:46:14;3.67;;;1.60;;
5279;SDS011;2663;53.588;10.010;2022-08-21T12:48:54;5.60;;;1.23;;
5279;SDS011;2663;53.588;10.010;2022-08-21T12:51:27;2.57;;;1.60;;
5279;SDS011;2663;53.588;10.010;2022-08-21T12:53:59;4.97;;;1.50;;
5279;SDS011;2663;53.588;10.010;2022-08-21T12:56:27;4.20;;;1.73;;
5279;SDS011;2663;53.588;10.010;2022-08-21T12:59:03;10.03;;;1.70;;
5279;SDS011;2663;53.588;10.010;2022-08-21T13:01:38;5.70;;;1.60;;
5279;SDS011;2663;53.588;10.010;2022-08-21T13:04:13;4.80;;;1.40;;
5279;SDS011;2663;53.588;10.010;2022-08-21T13:06:43;2.27;;;1.40;;
5279;SDS011;2663;53.588;10.010;2022-08-21T13:09:14;5.57;;;1.60;;
5279;SDS011;2663;53.588;10.010;2022-08-21T13:11:44;4.00;;;1.50;;
5279;SDS011;2663;53.588;10.010;2022-08-21T13:14:21;1.57;;;1.20;;
5279;SDS011;2663;53.588;10.010;2022-08-21T13:17:11;3.10;;;1.40;;
5279;SDS011;2663;53.588;10.010;2022-08-21T13:19:57;3.10;;;1.70;;
5279;SDS011;2663;53.588;10.010;2022-08-21T13:22:39;1.90;;;1.10;;
5279;SDS011;2663;53.588;10.010;2022-08-21T13:25:11;2.77;;;1.33;;
5279;SDS011;2663;53.588;10.010;2022-08-21T13:27:41;1.60;;;1.30;;
5279;SDS011;2663;53.588;10.010;2022-08-21T13:30:11;2.73;;;1.50;;
5279;SDS011;2663;53.588;10.010;2022-08-21T13:32:41;2.23;;;1.60;;
5279;SDS011;2663;53.588;10.010;2022-08-21T13:35:11;2.77;;;1.27;;
5279;SDS011;2663;53.588;10.010;2022-08-21T13:37:44;4.53;;;1.23;;
5279;SDS011;2663;53.588;10.010;2022-08-21T13:40:18;1.57;;;1.20;;
5279;SDS011;2663;53.588;10.010;2022-08-21T13:42:50;3.93;;;1.47;;
5279;SDS011;2663;53.588;10.010;2022-08-21T13:45:22;3.73;;;1.50;;
5279;SDS011;2663;53.588;10.010;2022-08-21T13:47:56;1.20;;;1.10;;
5279;SDS011;2663;53.588;10.010;2022-08-21T13:50:31;5.00;;;1.10;;
5279;SDS011;2663;53.588;10.010;2022-08-21T13:53:03;1.27;;;1.10;;
5279;SDS011;2663;53.588;10.010;2022-08-21T13:55:42;2.40;;;1.00;;
5279;SDS011;2663;53.588;10.010;2022-08-21T13:58:10;1.67;;;1.20;;
5279;SDS011;2663;53.588;10.010;2022-08-21T14:00:45;8.43;;;1.93;;
5279;SDS011;2663;53.588;10.010;2022-08-21T14:03:23;5.27;;;1.40;;
5279;SDS011;2663;53.588;10.010;2022-08-21T14:06:16;3.33;;;1.40;;
5279;SDS011;2663;53.588;10.010;2022-08-21T14:08:50;2.00;;;1.20;;
5279;SDS011;2663;53.588;10.010;2022-08-21T14:11:31;3.23;;;1.50;;
5279;SDS011;2663;53.588;10.010;2022-08-21T14:14:04;2.70;;;1.20;;
5279;SDS011;2663;53.588;10.010;2022-08-21T14:16:44;3.47;;;1.40;;
5279;SDS011;2663;53.588;10.010;2022-08-21T14:19:49;8.03;;;1.60;;
5279;SDS011;2663;53.588;10.010;2022-08-21T14:24:49;1.20;;;1.10;;
5279;SDS011;2663;53.588;10.010;2022-08-21T14:27:28;2.30;;;0.90;;
5279;SDS011;2663;53.588;10.010;2022-08-21T14:29:57;5.80;;;1.60;;
5279;SDS011;2663;53.588;10.010;2022-08-21T14:32:37;4.20;;;1.50;;
5279;SDS011;2663;53.588;10.010;2022-08-21T14:35:11;2.03;;;1.00;;
5279;SDS011;2663;53.588;10.010;2022-08-21T14:37:41;2.57;;;1.47;;
5279;SDS011;2663;53.588;10.010;2022-08-21T14:40:10;2.50;;;1.40;;
5279;SDS011;2663;53.588;10.010;2022-08-21T14:42:41;6.73;;;1.73;;
5279;SDS011;2663;53.588;10.010;2022-08-21T14:45:29;2.20;;;1.33;;
5279;SDS011;2663;53.588;10.010;2022-08-21T14:47:57;2.97;;;1.67;;
5279;SDS011;2663;53.588;10.010;2022-08-21T14:50:25;3.43;;;1.60;;
5279;SDS011;2663;53.588;10.010;2022-08-21T14:52:53;3.30;;;1.53;;
5279;SDS011;2663;53.588;10.010;2022-08-21T14:55:20;1.63;;;1.03;;
5279;SDS011;2663;53.588;10.010;2022-08-21T14:57:48;3.20;;;1.80;;
5279;SDS011;2663;53.588;10.010;2022-08-21T15:00:18;7.40;;;1.83;;
5279;SDS011;2663;53.588;10.010;2022-08-21T15:02:47;4.37;;;1.57;;
5279;SDS011;2663;53.588;10.010;2022-08-21T15:05:15;3.50;;;1.50;;
5279;SDS011;2663;53.588;10.010;2022-08-21T15:07:58;2.97;;;1.57;;
5279;SDS011;2663;53.588;10.010;2022-08-21T15:10:24;3.00;;;1.17;;
5279;SDS011;2663;53.588;10.010;2022-08-21T15:12:51;2.77;;;1.27;;
5279;SDS011;2663;53.588;10.010;2022-08-21T15:15:18;16.30;;;2.23;;
5279;SDS011;2663;53.588;10.010;2022-08-21T15:17:45;5.17;;;1.63;;
5279;SDS011;2663;53.588;10.010;2022-08-21T15:20:13;2.73;;;0.90;;
5279;SDS011;2663;53.588;10.010;2022-08-21T15:22:40;3.30;;;1.33;;
5279;SDS011;2663;53.588;10.010;2022-08-21T15:25:13;4.17;;;1.30;;
5279;SDS011;2663;53.588;10.010;2022-08-21T15:27:40;4.87;;;1.30;;
5279;SDS011;2663;53.588;10.010;2022-08-21T15:30:07;1.67;;;1.03;;
5279;SDS011;2663;53.588;10.010;2022-08-21T15:32:34;2.27;;;1.43;;
5279;SDS011;2663;53.588;10.010;2022-08-21T15:35:01;2.20;;;1.60;;
5279;SDS011;2663;53.588;10.010;2022-08-21T15:37:28;1.63;;;1.13;;
5279;SDS011;2663;53.588;10.010;2022-08-21T15:39:55;3.00;;;1.10;;
5279;SDS011;2663;53.588;10.010;2022-08-21T15:42:22;2.70;;;1.33;;
5279;SDS011;2663;53.588;10.010;2022-08-21T15:44:52;1.20;;;1.10;;
5279;SDS011;2663;53.588;10.010;2022-08-21T15:47:27;4.63;;;1.67;;
5279;SDS011;2663;53.588;10.010;2022-08-21T15:49:57;2.77;;;1.30;;
5279;SDS011;2663;53.588;10.010;2022-08-21T15:52:24;4.40;;;1.57;;
5279;SDS011;2663;53.588;10.010;2022-08-21T15:54:51;3.50;;;2.00;;
5279;SDS011;2663;53.588;10.010;2022-08-21T15:57:19;3.50;;;1.40;;
5279;SDS011;2663;53.588;10.010;2022-08-21T15:59:49;5.03;;;1.20;;
5279;SDS011;2663;53.588;10.010;2022-08-21T16:02:20;3.53;;;1.33;;
5279;SDS011;2663;53.588;10.010;2022-08-21T16:04:49;4.07;;;1.43;;